Time;durP1;ratioP1;P1;durP2;ratioP2;P2;SDS_P1;SDS_P2;PMS_P1;PMS_P2;Temp;Humidity;BMP_temperature;BMP_pressure;BME280_temperature;BME280_humidity;BME280_pressure;Samples;Min_cycle;Max_cycle;Signal;HPM_P1;HPM_P2
2023/09/02 00:00:24;;;;;;;1.13;1.02;;;;;;;16.87;80.81;96897.75;6184162;23;20462;-78
2023/09/02 00:02:52;;;;;;;2.33;1.30;;;;;;;16.84;79.67;96903.47;6184256;23;20119;-77
2023/09/02 00:05:20;;;;;;;1.83;1.30;;;;;;;16.83;79.18;96896.56;6184582;23;20407;-77
2023/09/02 00:07:49;;;;;;;3.03;1.00;;;;;;;16.80;79.25;96894.38;6184501;23;20075;-78
2023/09/02 00:10:17;;;;;;;3.60;1.25;;;;;;;16.78;78.96;96899.81;6184315;23;20079;-78
2023/09/02 00:12:45;;;;;;;9.75;1.48;;;;;;;16.75;79.00;96902.06;6184271;23;20021;-77
2023/09/02 00:15:12;;;;;;;3.53;1.15;;;;;;;16.70;78.76;96900.06;6184551;23;20052;-78
2023/09/02 00:17:40;;;;;;;2.78;1.30;;;;;;;16.65;78.93;96910.44;6184311;23;20080;-77
2023/09/02 00:20:08;;;;;;;1.77;1.15;;;;;;;16.62;79.96;96903.00;6184456;23;20029;-77
2023/09/02 00:22:36;;;;;;;3.45;1.70;;;;;;;16.60;80.51;96905.03;6184107;23;20355;-78
2023/09/02 00:25:05;;;;;;;2.80;1.23;;;;;;;16.61;80.80;96898.72;6184064;23;20047;-78
2023/09/02 00:27:33;;;;;;;3.30;0.90;;;;;;;16.64;80.56;96895.69;6184026;23;20017;-77
2023/09/02 00:30:00;;;;;;;3.28;1.17;;;;;;;16.66;80.05;96899.72;6184231;23;20021;-77
2023/09/02 00:32:29;;;;;;;1.70;1.00;;;;;;;16.66;79.92;96898.88;6183973;23;20029;-77
2023/09/02 00:34:57;;;;;;;2.15;1.23;;;;;;;16.65;79.72;96907.81;6184421;23;20021;-77
2023/09/02 00:37:24;;;;;;;1.77;1.30;;;;;;;16.68;82.71;96910.03;6184377;23;20025;-77
2023/09/02 00:39:52;;;;;;;1.15;0.90;;;;;;;16.68;81.05;96910.03;6184343;23;20406;-77
2023/09/02 00:42:22;;;;;;;1.42;1.00;;;;;;;16.68;81.16;96915.28;6184213;23;20028;-77
2023/09/02 00:44:50;;;;;;;3.30;0.85;;;;;;;16.68;80.20;96913.47;6184377;23;20029;-77
2023/09/02 00:47:18;;;;;;;3.67;1.17;;;;;;;16.67;79.88;96913.69;6184212;23;20075;-77
2023/09/02 00:49:46;;;;;;;1.77;1.40;;;;;;;16.68;81.22;96912.66;6184315;23;20025;-78
2023/09/02 00:52:13;;;;;;;2.45;1.13;;;;;;;16.70;80.53;96907.97;6184096;23;20029;-78
2023/09/02 00:54:41;;;;;;;1.92;0.90;;;;;;;16.67;80.00;96911.06;6184338;23;20025;-77
2023/09/02 00:57:09;;;;;;;5.43;1.65;;;;;;;16.65;79.71;96913.09;6184524;23;20087;-77
2023/09/02 00:59:39;;;;;;;2.67;0.93;;;;;;;16.62;80.06;96911.69;6184396;23;20087;-78
2023/09/02 01:02:10;;;;;;;1.98;1.10;;;;;;;16.61;79.95;96906.63;6184204;23;20049;-77
2023/09/02 01:04:37;;;;;;;5.43;0.93;;;;;;;16.59;80.11;96906.03;6185873;23;20301;-78
2023/09/02 01:07:06;;;;;;;2.28;1.55;;;;;;;16.60;80.72;96915.56;6184153;23;20017;-77
2023/09/02 01:09:33;;;;;;;1.80;1.38;;;;;;;16.60;80.26;96910.28;6184402;23;20033;-78
2023/09/02 01:12:01;;;;;;;3.35;1.52;;;;;;;16.58;79.84;96907.88;6183902;23;20025;-77
2023/09/02 01:14:29;;;;;;;3.15;1.00;;;;;;;16.55;79.41;96913.56;6202578;23;20039;-77
2023/09/02 01:16:58;;;;;;;4.40;1.20;;;;;;;16.51;79.33;96906.28;6202641;23;20021;-78
2023/09/02 01:19:25;;;;;;;2.78;1.35;;;;;;;16.47;79.39;96905.91;6185325;23;20528;-77
2023/09/02 01:22:21;;;;;;;2.75;1.10;;;;;;;16.44;79.73;96904.50;6184289;23;20029;-77
2023/09/02 01:25:08;;;;;;;3.22;1.23;;;;;;;16.43;80.44;96897.63;6184200;23;20021;-78
2023/09/02 01:27:40;;;;;;;3.25;0.85;;;;;;;16.43;80.12;96907.34;6184218;23;20017;-78
2023/09/02 01:30:13;;;;;;;4.13;1.48;;;;;;;16.39;79.81;96903.50;6184194;23;20056;-77
2023/09/02 01:32:44;;;;;;;3.95;1.30;;;;;;;16.37;81.08;96900.28;6184032;23;20025;-77
2023/09/02 01:35:17;;;;;;;1.48;1.30;;;;;;;16.37;81.15;96901.09;6184197;23;20105;-77
2023/09/02 01:37:46;;;;;;;1.75;1.17;;;;;;;16.36;80.90;96902.13;6184350;23;20025;-77
2023/09/02 01:40:21;;;;;;;3.67;1.30;;;;;;;16.39;82.55;96906.94;6190953;23;20068;-78
2023/09/02 01:42:51;;;;;;;2.38;1.10;;;;;;;16.41;80.90;96914.66;6185864;23;20025;-77
2023/09/02 01:45:20;;;;;;;1.20;1.10;;;;;;;16.43;82.83;96916.03;6186040;23;20025;-78
2023/09/02 01:47:48;;;;;;;3.28;1.10;;;;;;;16.44;83.45;96912.41;6185783;23;20021;-77
2023/09/02 01:50:18;;;;;;;1.48;0.90;;;;;;;16.45;82.67;96915.84;6185692;23;20375;-77
2023/09/02 01:52:47;;;;;;;3.15;1.25;;;;;;;16.47;85.00;96906.72;6185228;23;20024;-77
2023/09/02 01:55:16;;;;;;;3.47;1.00;;;;;;;16.45;82.21;96908.75;6185953;23;20029;-77
2023/09/02 01:57:44;;;;;;;1.88;1.23;;;;;;;16.42;80.99;96913.63;6185812;23;20021;-77
2023/09/02 02:00:14;;;;;;;3.60;1.13;;;;;;;16.39;80.63;96917.47;6185848;23;20071;-78
2023/09/02 02:02:42;;;;;;;3.40;1.40;;;;;;;16.36;80.85;96912.66;6185393;23;20056;-77
2023/09/02 02:05:13;;;;;;;3.75;1.20;;;;;;;16.39;84.55;96917.47;6185932;23;20355;-77
2023/09/02 02:07:43;;;;;;;1.98;0.95;;;;;;;16.38;82.00;96913.25;6185288;23;20013;-78
2023/09/02 02:10:15;;;;;;;1.45;1.15;;;;;;;16.33;80.72;96910.41;6185604;23;20029;-77
2023/09/02 02:12:43;;;;;;;1.67;1.08;;;;;;;16.29;80.54;96909.25;6185383;23;20254;-78
2023/09/02 02:15:12;;;;;;;1.20;1.00;;;;;;;16.24;80.36;96907.22;6185848;23;20084;-77
2023/09/02 02:17:41;;;;;;;2.40;0.93;;;;;;;16.21;79.99;96904.22;6185052;23;20017;-77
2023/09/02 02:20:10;;;;;;;1.33;1.02;;;;;;;16.18;81.37;96912.53;6185357;23;20091;-77
2023/09/02 02:22:38;;;;;;;2.60;1.63;;;;;;;16.18;80.94;96899.34;6185354;23;20079;-77
2023/09/02 02:25:06;;;;;;;2.78;1.10;;;;;;;16.17;80.84;96905.66;6185913;23;20075;-77
2023/09/02 02:27:33;;;;;;;2.92;1.17;;;;;;;16.15;80.90;96903.22;6185099;23;20060;-77
2023/09/02 02:30:03;;;;;;;1.98;1.00;;;;;;;16.14;81.51;96906.09;6185074;23;20466;-77
2023/09/02 02:32:32;;;;;;;2.83;1.50;;;;;;;16.14;80.97;96906.09;6185172;23;20047;-77
2023/09/02 02:35:01;;;;;;;2.63;1.38;;;;;;;16.12;80.87;96910.75;6185142;23;20023;-77
2023/09/02 02:37:28;;;;;;;1.23;0.77;;;;;;;16.11;80.84;96906.47;6186041;23;20583;-78
2023/09/02 02:39:56;;;;;;;4.45;1.10;;;;;;;16.07;80.68;96906.13;6185567;23;20025;-78
2023/09/02 02:42:23;;;;;;;2.95;1.02;;;;;;;16.05;80.47;96914.22;6184683;23;20025;-77
2023/09/02 02:44:51;;;;;;;2.65;1.10;;;;;;;16.05;80.42;96914.22;6184963;23;20025;-77
2023/09/02 02:47:18;;;;;;;2.00;1.05;;;;;;;16.06;81.25;96915.81;6185033;23;20017;-78
2023/09/02 02:49:47;;;;;;;2.63;1.77;;;;;;;16.10;82.93;96915.41;6184775;23;20021;-77
2023/09/02 02:52:15;;;;;;;2.42;1.10;;;;;;;16.09;81.30;96919.84;6185171;23;20031;-77
2023/09/02 02:54:43;;;;;;;1.75;1.48;;;;;;;16.10;83.47;96910.16;6184972;23;20025;-77
2023/09/02 02:57:10;;;;;;;2.85;1.58;;;;;;;16.11;82.86;96914.38;6184818;23;20021;-78
2023/09/02 02:59:38;;;;;;;2.20;1.30;;;;;;;16.11;82.67;96906.47;6184901;23;20080;-77
2023/09/02 03:02:05;;;;;;;2.33;1.13;;;;;;;16.13;83.99;96920.25;6185276;23;20024;-77
2023/09/02 03:04:33;;;;;;;4.18;1.00;;;;;;;16.17;82.55;96916.19;6184902;23;20096;-77
2023/09/02 03:07:02;;;;;;;4.18;1.45;;;;;;;16.14;81.59;96914.78;6185046;23;20024;-78
2023/09/02 03:09:30;;;;;;;1.70;1.42;;;;;;;16.12;81.24;96916.00;6185096;23;20025;-77
2023/09/02 03:11:58;;;;;;;2.05;1.10;;;;;;;16.10;80.76;96920.66;6184393;23;20025;-77
2023/09/02 03:14:26;;;;;;;5.55;1.33;;;;;;;16.10;80.82;96920.66;6184862;23;20029;-77
2023/09/02 03:16:53;;;;;;;3.67;1.27;;;;;;;16.12;82.87;96918.63;6185321;23;20027;-78
2023/09/02 03:19:21;;;;;;;1.40;1.30;;;;;;;16.14;83.63;96917.41;6184937;23;20071;-78
2023/09/02 03:21:48;;;;;;;4.57;1.10;;;;;;;16.15;82.17;96923.47;6184417;23;20528;-77
2023/09/02 03:24:17;;;;;;;1.83;1.15;;;;;;;16.19;84.40;96924.69;6184629;23;20083;-77
2023/09/02 03:26:45;;;;;;;3.65;1.30;;;;;;;16.16;82.68;96925.91;6185190;23;20076;-77
2023/09/02 03:29:13;;;;;;;4.80;1.25;;;;;;;16.14;83.13;96927.13;6184848;23;20017;-78
2023/09/02 03:31:40;;;;;;;4.10;1.25;;;;;;;16.13;82.04;96922.88;6184829;23;20052;-78
2023/09/02 03:34:08;;;;;;;2.00;1.15;;;;;;;16.09;81.19;96919.84;6184746;23;20028;-78
2023/09/02 03:36:35;;;;;;;2.72;1.67;;;;;;;16.04;80.67;96924.94;6184769;23;20083;-77
2023/09/02 03:39:03;;;;;;;3.22;1.40;;;;;;;15.99;80.46;96925.56;6184581;23;20513;-78
2023/09/02 03:41:33;;;;;;;3.15;1.48;;;;;;;15.93;80.46;96928.22;6184139;23;20406;-77
2023/09/02 03:44:01;;;;;;;4.85;1.23;;;;;;;15.89;80.52;96940.16;6184681;23;20084;-77
2023/09/02 03:46:29;;;;;;;1.85;1.00;;;;;;;15.86;81.65;96933.50;6184429;23;20040;-77
2023/09/02 03:49:00;;;;;;;1.75;1.05;;;;;;;15.84;81.00;96938.94;6184885;23;20354;-78
2023/09/02 03:51:28;;;;;;;1.27;1.17;;;;;;;15.83;81.50;96937.34;6191733;23;20029;-77
2023/09/02 03:53:56;;;;;;;2.15;1.10;;;;;;;15.83;81.00;96926.00;6184377;23;20029;-77
2023/09/02 03:56:23;;;;;;;2.38;1.48;;;;;;;15.83;81.04;96926.00;6184463;23;20029;-77
2023/09/02 03:58:53;;;;;;;4.60;1.38;;;;;;;15.83;80.89;96933.88;6184491;23;20351;-77
2023/09/02 04:01:21;;;;;;;5.63;1.30;;;;;;;15.81;80.54;96933.31;6187134;23;20024;-78
2023/09/02 04:03:49;;;;;;;1.70;1.30;;;;;;;15.81;80.65;96933.31;6203551;23;20025;-78
2023/09/02 04:06:17;;;;;;;3.63;1.60;;;;;;;15.83;82.96;96929.47;6198939;23;20076;-78
2023/09/02 04:08:44;;;;;;;3.22;1.38;;;;;;;15.84;83.64;96931.06;6185753;23;20399;-77
2023/09/02 04:11:12;;;;;;;2.25;1.40;;;;;;;15.81;82.42;96928.06;6184521;23;20021;-77
2023/09/02 04:13:41;;;;;;;1.38;1.20;;;;;;;15.79;81.42;96930.88;6184194;23;20025;-77
2023/09/02 04:16:10;;;;;;;2.05;1.17;;;;;;;15.78;80.86;96933.72;6184796;23;20051;-77
2023/09/02 04:18:38;;;;;;;3.10;1.50;;;;;;;15.76;80.46;96933.09;6184449;23;20021;-77
2023/09/02 04:21:08;;;;;;;6.82;1.38;;;;;;;15.74;80.55;96935.13;6184199;23;20036;-77
2023/09/02 04:23:36;;;;;;;3.22;1.52;;;;;;;15.71;80.38;96935.53;6184252;23;20414;-77
2023/09/02 04:26:04;;;;;;;5.22;1.48;;;;;;;15.69;80.52;96940.19;6184754;23;20363;-77
2023/09/02 04:28:32;;;;;;;4.60;2.08;;;;;;;15.68;80.54;96943.81;6184281;23;20025;-77
2023/09/02 04:30:59;;;;;;;3.97;1.23;;;;;;;15.66;80.55;96939.56;6184435;23;20021;-77
2023/09/02 04:33:28;;;;;;;1.67;1.10;;;;;;;15.68;81.32;96954.31;6183881;23;20076;-77
2023/09/02 04:35:56;;;;;;;3.85;1.35;;;;;;;15.70;81.80;96952.31;6184106;23;20029;-77
2023/09/02 04:38:24;;;;;;;1.65;1.23;;;;;;;15.72;81.04;96959.03;6184608;23;20079;-77
2023/09/02 04:40:51;;;;;;;2.15;1.30;;;;;;;15.70;80.62;96957.56;6184223;23;20028;-77
2023/09/02 04:43:19;;;;;;;6.65;1.50;;;;;;;15.69;80.29;96951.50;6184212;23;20056;-77
2023/09/02 04:45:47;;;;;;;1.75;1.08;;;;;;;15.66;79.98;96962.44;6184261;23;20079;-77
2023/09/02 04:48:15;;;;;;;3.05;1.40;;;;;;;15.63;79.89;96962.84;6184096;23;20083;-78
2023/09/02 04:50:52;;;;;;;4.68;1.40;;;;;;;15.62;83.08;96959.41;6184145;23;20028;-77
2023/09/02 04:53:20;;;;;;;1.88;1.10;;;;;;;15.59;81.54;96962.47;6183756;23;20492;-77
2023/09/02 04:55:48;;;;;;;1.67;1.08;;;;;;;15.58;80.96;96962.66;6184245;23;20029;-77
2023/09/02 04:58:16;;;;;;;1.23;1.10;;;;;;;15.57;80.71;96964.47;6184345;23;20021;-77
2023/09/02 05:00:44;;;;;;;1.88;1.13;;;;;;;15.58;81.25;96966.09;6184440;23;20025;-77
2023/09/02 05:03:12;;;;;;;2.50;0.95;;;;;;;15.59;81.42;96965.09;6184131;23;20025;-77
2023/09/02 05:05:40;;;;;;;2.95;1.40;;;;;;;15.59;80.78;96978.22;6184319;23;20080;-78
2023/09/02 05:08:09;;;;;;;3.05;1.50;;;;;;;15.57;80.37;96982.88;6183825;23;20116;-78
2023/09/02 05:10:37;;;;;;;5.00;1.65;;;;;;;15.57;80.44;96984.72;6183441;23;20021;-78
2023/09/02 05:13:04;;;;;;;2.15;1.23;;;;;;;15.55;80.41;96987.53;6184192;23;20021;-77
2023/09/02 05:15:32;;;;;;;3.05;1.40;;;;;;;15.58;82.48;96992.38;6186215;23;20029;-77
2023/09/02 05:18:00;;;;;;;2.35;1.20;;;;;;;15.66;85.03;96989.53;6186225;23;20024;-77
2023/09/02 05:20:27;;;;;;;4.78;1.80;;;;;;;15.69;82.60;96987.53;6185581;23;20013;-77
2023/09/02 05:22:55;;;;;;;2.30;1.15;;;;;;;15.65;81.51;96990.56;6185365;23;20549;-78
2023/09/02 05:25:26;;;;;;;3.30;1.50;;;;;;;15.64;81.29;96990.75;6186414;23;20025;-77
2023/09/02 05:27:54;;;;;;;2.10;1.30;;;;;;;15.63;80.99;96994.38;6186323;23;20084;-77
2023/09/02 05:30:22;;;;;;;2.45;1.30;;;;;;;15.61;80.48;96992.00;6186403;23;20021;-77
2023/09/02 05:32:49;;;;;;;1.92;1.23;;;;;;;15.58;80.20;96992.38;6185944;23;20075;-77
2023/09/02 05:35:17;;;;;;;1.83;1.40;;;;;;;15.56;80.36;96994.41;6186083;23;20024;-77
2023/09/02 05:37:45;;;;;;;2.60;1.60;;;;;;;15.55;80.26;96998.06;6186226;23;20029;-78
2023/09/02 05:40:12;;;;;;;5.90;1.40;;;;;;;15.56;80.53;97004.91;6185972;23;20103;-77
2023/09/02 05:42:42;;;;;;;1.67;1.02;;;;;;;15.58;80.38;97007.34;6185610;23;20467;-77
2023/09/02 05:45:10;;;;;;;2.75;1.60;;;;;;;15.59;80.70;97012.41;6186461;23;20025;-77
2023/09/02 05:47:37;;;;;;;3.05;1.10;;;;;;;15.61;80.65;97002.50;6185874;23;20024;-77
2023/09/02 05:50:06;;;;;;;2.38;1.10;;;;;;;15.63;80.61;97010.16;6185886;23;20414;-77
2023/09/02 05:52:33;;;;;;;2.78;1.40;;;;;;;15.65;82.11;97006.34;6185514;23;20029;-77
2023/09/02 05:55:01;;;;;;;3.55;1.05;;;;;;;15.68;81.83;97007.75;6185985;23;20087;-77
2023/09/02 05:57:29;;;;;;;2.13;1.30;;;;;;;15.69;81.61;97004.09;6185474;23;20024;-77
2023/09/02 05:59:58;;;;;;;2.92;1.35;;;;;;;15.71;82.23;97006.53;6185733;23;20521;-77
2023/09/02 06:02:27;;;;;;;3.15;1.58;;;;;;;15.73;82.02;97001.91;6185380;23;20029;-78
2023/09/02 06:04:55;;;;;;;1.95;1.10;;;;;;;15.76;82.21;96998.88;6185395;23;20032;-77
2023/09/02 06:07:23;;;;;;;0.73;0.73;;;;;;;15.79;81.93;97003.72;6185652;23;20024;-77
2023/09/02 06:09:51;;;;;;;4.57;1.33;;;;;;;15.84;82.02;96996.03;6185597;23;20017;-78
2023/09/02 06:12:19;;;;;;;1.10;1.00;;;;;;;15.92;83.32;96995.81;6185111;23;20028;-77
2023/09/02 06:14:46;;;;;;;1.92;1.05;;;;;;;15.98;83.08;96996.78;6190879;23;20025;-78
2023/09/02 06:17:15;;;;;;;2.47;0.85;;;;;;;16.08;83.63;97007.72;6186138;23;20087;-77
2023/09/02 06:19:43;;;;;;;2.28;1.30;;;;;;;16.18;84.57;96999.38;6185639;23;20072;-77
2023/09/02 06:22:11;;;;;;;1.98;1.50;;;;;;;16.29;84.74;97001.38;6185547;23;20025;-77
2023/09/02 06:24:39;;;;;;;2.95;1.27;;;;;;;16.35;83.24;97002.34;6184525;23;20499;-77
2023/09/02 06:27:07;;;;;;;2.33;1.58;;;;;;;16.45;85.52;97006.16;6185164;23;20467;-77
2023/09/02 06:29:34;;;;;;;2.10;1.23;;;;;;;16.57;85.61;97005.50;6185414;23;20072;-78
2023/09/02 06:32:02;;;;;;;2.42;1.55;;;;;;;16.66;85.31;97010.34;6185243;23;20079;-77
2023/09/02 06:34:31;;;;;;;3.40;1.30;;;;;;;16.76;84.00;97011.72;6185084;23;20029;-77
2023/09/02 06:36:59;;;;;;;2.15;1.42;;;;;;;16.87;85.01;97011.88;6185352;23;20025;-77
2023/09/02 06:39:26;;;;;;;1.63;1.00;;;;;;;16.99;85.72;97008.56;6185344;23;20021;-77
2023/09/02 06:41:54;;;;;;;2.95;1.40;;;;;;;17.08;83.76;97017.84;6185243;23;20025;-77
2023/09/02 06:44:21;;;;;;;2.83;2.00;;;;;;;17.19;84.04;97014.53;6184710;23;20076;-78
2023/09/02 06:46:49;;;;;;;1.95;1.13;;;;;;;17.31;83.20;97017.25;6184876;23;20216;-78
2023/09/02 06:49:16;;;;;;;2.58;0.88;;;;;;;17.41;82.33;97016.81;6184843;23;20018;-77
2023/09/02 06:51:45;;;;;;;3.00;1.10;;;;;;;17.54;81.19;97013.25;6196695;23;20513;-78
2023/09/02 06:54:13;;;;;;;1.42;1.00;;;;;;;17.65;80.48;97002.00;6200606;23;20052;-78
2023/09/02 06:56:40;;;;;;;3.00;1.17;;;;;;;17.81;81.06;97011.19;6188492;23;20020;-78
2023/09/02 06:59:08;;;;;;;2.45;1.45;;;;;;;17.95;81.37;97012.72;6185514;23;20091;-78
2023/09/02 07:01:36;;;;;;;2.25;1.20;;;;;;;18.10;80.92;97010.53;6185243;23;20024;-77
2023/09/02 07:04:04;;;;;;;2.03;1.35;;;;;;;18.25;80.76;97017.25;6184955;23;20088;-77
2023/09/02 07:06:31;;;;;;;6.55;4.07;;;;;;;18.40;81.18;97012.41;6185106;23;20056;-78
2023/09/02 07:09:00;;;;;;;3.38;1.80;;;;;;;18.55;80.08;97025.25;6185091;23;20084;-78
2023/09/02 07:11:28;;;;;;;2.83;1.23;;;;;;;18.68;79.37;97021.63;6185656;23;20017;-79
2023/09/02 07:13:56;;;;;;;4.78;0.95;;;;;;;18.83;80.32;97019.44;6185453;23;20467;-79
2023/09/02 07:16:25;;;;;;;1.13;0.85;;;;;;;18.97;79.55;97019.25;6185504;23;20017;-79
2023/09/02 07:18:53;;;;;;;2.15;0.90;;;;;;;19.12;78.91;97032.88;6186003;23;20021;-79
2023/09/02 07:21:22;;;;;;;2.72;1.05;;;;;;;19.25;79.36;97032.66;6185597;23;20029;-79
2023/09/02 07:23:51;;;;;;;2.45;1.02;;;;;;;19.41;79.43;97027.75;6185620;23;20091;-79
2023/09/02 07:26:23;;;;;;;2.47;1.35;;;;;;;19.55;78.46;97031.81;6185975;23;20025;-79
2023/09/02 07:28:51;;;;;;;1.45;1.10;;;;;;;19.71;78.01;97028.50;6185423;23;20040;-79
2023/09/02 07:31:19;;;;;;;2.33;1.00;;;;;;;19.88;75.95;97033.94;6185312;23;20020;-79
2023/09/02 07:33:47;;;;;;;2.88;1.40;;;;;;;20.07;74.95;97039.09;6185536;23;20109;-79
2023/09/02 07:36:14;;;;;;;1.30;1.20;;;;;;;20.26;73.85;97037.94;6185624;23;20052;-79
2023/09/02 07:38:44;;;;;;;2.65;1.33;;;;;;;20.43;73.34;97040.66;6185654;23;20083;-79
2023/09/02 07:41:12;;;;;;;6.00;2.25;;;;;;;20.62;72.90;97035.22;6185152;23;20049;-79
2023/09/02 07:43:41;;;;;;;5.20;4.13;;;;;;;20.83;71.34;97041.75;6185895;23;20417;-79
2023/09/02 07:46:11;;;;;;;3.97;1.90;;;;;;;21.01;71.15;97038.09;6185896;23;20017;-79
2023/09/02 07:48:39;;;;;;;4.13;1.63;;;;;;;21.17;69.88;97037.34;6185327;23;20028;-79
2023/09/02 07:51:06;;;;;;;1.98;1.33;;;;;;;21.35;69.12;97044.28;6185160;23;20017;-79
2023/09/02 07:53:34;;;;;;;2.47;1.42;;;;;;;21.53;68.61;97045.91;6185712;23;20044;-80
2023/09/02 07:56:02;;;;;;;4.57;1.70;;;;;;;21.70;71.09;97038.75;6185766;23;20391;-79
2023/09/02 07:58:30;;;;;;;3.03;1.70;;;;;;;21.88;68.25;97047.53;6185376;23;20467;-79
2023/09/02 08:01:00;;;;;;;3.20;1.52;;;;;;;22.09;66.90;97048.63;6185276;23;20021;-79
2023/09/02 08:03:28;;;;;;;5.95;1.77;;;;;;;22.32;67.17;97044.97;6185255;23;20025;-80
2023/09/02 08:05:56;;;;;;;2.67;1.48;;;;;;;22.58;65.76;97046.91;6185346;23;20021;-79
2023/09/02 08:08:24;;;;;;;4.13;1.80;;;;;;;22.87;64.97;97056.53;6185684;23;20017;-79
2023/09/02 08:11:01;;;;;;;2.17;1.45;;;;;;;23.12;63.96;97062.16;6185161;23;20024;-79
2023/09/02 08:13:29;;;;;;;4.20;1.90;;;;;;;23.35;63.36;97050.41;6185645;23;20048;-79
2023/09/02 08:15:58;;;;;;;2.28;1.88;;;;;;;23.58;62.97;97059.91;6185647;23;20025;-79
2023/09/02 08:18:28;;;;;;;2.78;1.50;;;;;;;23.82;61.66;97057.75;6185519;23;20025;-79
2023/09/02 08:20:56;;;;;;;2.50;1.58;;;;;;;24.04;60.62;97054.16;6185556;23;20024;-79
2023/09/02 08:23:24;;;;;;;8.55;4.80;;;;;;;24.23;60.20;97059.88;6185049;23;20017;-80
2023/09/02 08:25:52;;;;;;;2.80;1.75;;;;;;;24.47;59.62;97055.72;6185257;23;20013;-79
2023/09/02 08:28:22;;;;;;;1.90;1.05;;;;;;;24.75;58.63;97064.44;6185121;23;20021;-79
2023/09/02 08:30:50;;;;;;;2.20;1.13;;;;;;;25.01;58.14;97067.94;6184985;23;20079;-79
2023/09/02 08:33:18;;;;;;;3.20;1.38;;;;;;;25.30;57.29;97067.53;6187979;23;20021;-80
2023/09/02 08:35:47;;;;;;;2.03;1.10;;;;;;;25.51;55.16;97062.19;6185861;23;20406;-80
2023/09/02 08:38:14;;;;;;;3.42;1.17;;;;;;;25.73;55.47;97065.41;6184407;23;20032;-80
2023/09/02 08:40:43;;;;;;;2.35;1.08;;;;;;;26.06;53.52;97064.09;6184346;23;20083;-80
2023/09/02 08:43:12;;;;;;;3.88;1.60;;;;;;;26.73;52.96;97071.13;6183759;23;20028;-80
2023/09/02 08:45:44;;;;;;;1.67;1.20;;;;;;;27.48;50.38;97066.44;6184452;23;20025;-80
2023/09/02 08:48:20;;;;;;;3.05;1.15;;;;;;;28.21;48.20;97062.09;6184560;23;20059;-80
2023/09/02 08:50:53;;;;;;;0.82;0.82;;;;;;;28.98;46.29;97063.88;6186618;23;20344;-81
2023/09/02 08:53:22;;;;;;;1.90;1.23;;;;;;;29.69;44.26;97072.03;6187046;23;20083;-81
2023/09/02 08:55:51;;;;;;;2.33;1.35;;;;;;;30.25;42.42;97067.56;6187114;23;20521;-80
2023/09/02 08:58:20;;;;;;;2.47;1.15;;;;;;;30.70;41.54;97078.56;6187407;23;20084;-80
2023/09/02 09:00:49;;;;;;;1.60;1.15;;;;;;;31.02;41.05;97074.97;6187570;23;20347;-80
2023/09/02 09:03:20;;;;;;;2.47;1.05;;;;;;;31.26;40.39;97076.59;6187415;23;20529;-80
2023/09/02 09:05:50;;;;;;;1.38;1.00;;;;;;;31.28;40.13;97066.31;6188849;23;20083;-80
2023/09/02 09:08:21;;;;;;;1.90;0.90;;;;;;;31.40;39.75;97063.88;6187155;23;20025;-79
2023/09/02 09:10:49;;;;;;;1.77;1.10;;;;;;;31.58;39.41;97073.72;6187716;23;20060;-80
2023/09/02 09:13:19;;;;;;;1.13;1.02;;;;;;;31.63;40.52;97072.00;6187975;23;20079;-79
2023/09/02 09:15:48;;;;;;;2.88;0.98;;;;;;;31.68;39.40;97077.25;6188468;23;20052;-81
2023/09/02 09:18:16;;;;;;;4.57;1.10;;;;;;;31.59;38.79;97079.91;6188133;23;20025;-80
2023/09/02 09:20:44;;;;;;;1.48;0.90;;;;;;;31.50;38.93;97079.84;6187049;23;20021;-80
2023/09/02 09:23:12;;;;;;;2.03;1.20;;;;;;;31.58;39.54;97078.31;6187191;23;20029;-80
2023/09/02 09:25:42;;;;;;;0.93;0.82;;;;;;;31.56;38.41;97084.00;6187053;23;20532;-81
2023/09/02 09:28:11;;;;;;;1.70;1.02;;;;;;;31.48;41.15;97087.44;6187568;23;20522;-80
2023/09/02 09:30:39;;;;;;;1.80;0.93;;;;;;;31.68;38.84;97093.44;6187498;23;20048;-80
2023/09/02 09:33:07;;;;;;;1.63;0.95;;;;;;;32.09;38.38;97082.47;6187484;23;20025;-80
2023/09/02 09:35:37;;;;;;;2.42;0.85;;;;;;;32.39;37.57;97090.88;6187479;23;20025;-80
2023/09/02 09:38:05;;;;;;;1.50;0.90;;;;;;;32.33;38.68;97082.09;6187405;23;20017;-80
2023/09/02 09:40:34;;;;;;;2.28;0.90;;;;;;;31.96;37.37;97086.78;6188741;23;20025;-80
2023/09/02 09:43:14;;;;;;;1.75;0.90;;;;;;;31.47;37.74;97091.25;6188836;23;20079;-80
2023/09/02 09:45:50;;;;;;;1.70;0.95;;;;;;;30.90;39.29;97091.66;6188507;23;20020;-80
2023/09/02 09:48:18;;;;;;;1.50;0.85;;;;;;;30.58;40.65;97085.25;6188441;23;20052;-80
2023/09/02 09:50:45;;;;;;;1.27;1.15;;;;;;;30.31;41.13;97086.03;6187577;23;20025;-80
2023/09/02 09:53:13;;;;;;;2.03;1.17;;;;;;;30.14;41.47;97089.28;6187529;23;20418;-80
2023/09/02 09:55:40;;;;;;;1.55;0.80;;;;;;;30.03;41.65;97087.06;6188400;23;20087;-80
2023/09/02 09:58:10;;;;;;;0.77;0.70;;;;;;;29.96;41.74;97095.53;6187885;23;20032;-80
2023/09/02 10:00:38;;;;;;;0.88;0.80;;;;;;;30.01;42.50;97091.94;6187804;23;20025;-80
2023/09/02 10:03:06;;;;;;;2.38;0.85;;;;;;;30.05;42.49;97085.69;6187161;23;20025;-81
2023/09/02 10:05:34;;;;;;;2.75;0.98;;;;;;;30.08;42.61;97090.44;6187526;23;20036;-80
2023/09/02 10:08:04;;;;;;;0.98;0.88;;;;;;;29.88;42.74;97088.13;6188082;23;20027;-80
2023/09/02 10:10:33;;;;;;;2.92;1.17;;;;;;;29.53;43.20;97087.56;6188011;23;20076;-80
2023/09/02 10:13:01;;;;;;;1.27;0.90;;;;;;;29.22;44.14;97089.91;6187639;23;20017;-80
2023/09/02 10:15:30;;;;;;;0.98;0.88;;;;;;;28.95;45.31;97096.66;6187385;23;20025;-80
2023/09/02 10:18:01;;;;;;;3.45;1.50;;;;;;;28.71;44.49;97094.84;6188171;23;20021;-80
2023/09/02 10:20:30;;;;;;;2.50;0.90;;;;;;;28.58;44.71;97095.53;6187316;23;20032;-80
2023/09/02 10:23:05;;;;;;;2.60;1.13;;;;;;;28.52;44.60;97088.63;6187162;23;20020;-79
2023/09/02 10:25:42;;;;;;;1.02;0.80;;;;;;;28.49;44.29;97089.16;6187456;23;20530;-80
2023/09/02 10:28:12;;;;;;;1.30;0.73;;;;;;;28.53;47.28;97092.88;6185975;23;20025;-79
2023/09/02 10:30:47;;;;;;;1.05;0.95;;;;;;;28.48;43.20;97098.31;6186885;23;20025;-80
2023/09/02 10:33:21;;;;;;;1.67;0.57;;;;;;;28.46;43.23;97089.72;6187360;23;20053;-80
2023/09/02 10:35:59;;;;;;;1.38;0.63;;;;;;;28.47;43.11;97094.81;6187289;23;20029;-80
2023/09/02 10:38:30;;;;;;;1.20;0.80;;;;;;;28.51;43.73;97095.88;6187482;23;20096;-80
2023/09/02 10:41:06;;;;;;;2.30;0.70;;;;;;;28.47;42.26;97096.66;6186844;23;20028;-80
2023/09/02 10:43:34;;;;;;;0.65;0.55;;;;;;;28.44;43.07;97095.34;6186089;23;20033;-80
2023/09/02 10:46:05;;;;;;;0.73;0.60;;;;;;;28.39;42.07;97095.44;6187126;23;20252;-80
2023/09/02 10:48:34;;;;;;;0.95;0.63;;;;;;;28.30;41.97;97089.88;6190889;23;20076;-80
2023/09/02 10:51:03;;;;;;;0.80;0.65;;;;;;;28.25;42.38;97089.94;6189209;23;20028;-79
2023/09/02 10:53:56;;;;;;;1.27;0.75;;;;;;;28.25;42.28;97089.94;6188467;23;20358;-80
2023/09/02 10:56:27;;;;;;;2.05;0.88;;;;;;;28.29;42.13;97093.63;6187167;23;20467;-80
2023/09/02 10:58:55;;;;;;;1.02;0.90;;;;;;;28.32;42.72;97089.59;6188091;23;20029;-80
2023/09/02 11:01:24;;;;;;;0.98;0.85;;;;;;;28.23;41.21;97086.75;6188341;23;20025;-80
2023/09/02 11:03:54;;;;;;;0.52;0.50;;;;;;;28.19;40.30;97093.75;6187550;23;20057;-81
2023/09/02 11:06:21;;;;;;;1.60;0.63;;;;;;;28.19;40.57;97096.44;6187930;23;20052;-80
2023/09/02 11:08:51;;;;;;;1.25;0.77;;;;;;;28.14;40.00;97094.59;6187161;23;20056;-80
2023/09/02 11:11:20;;;;;;;1.13;0.60;;;;;;;28.10;39.80;97093.56;6186115;23;20095;-80
2023/09/02 11:14:18;;;;;;;1.08;0.63;;;;;;;28.08;41.04;97092.25;6186573;23;20071;-80
2023/09/02 11:17:27;;;;;;;2.53;0.63;;;;;;;27.94;41.30;97092.91;6186240;23;20075;-80
2023/09/02 11:19:57;;;;;;;0.90;0.70;;;;;;;27.88;40.86;97077.94;6186072;23;20032;-81
2023/09/02 11:22:50;;;;;;;0.50;0.43;;;;;;;27.79;40.94;97084.97;6186006;23;20024;-84
2023/09/02 11:25:45;;;;;;;1.05;0.70;;;;;;;27.69;42.75;97085.03;6186124;23;20354;-80
2023/09/02 11:28:26;;;;;;;1.63;1.02;;;;;;;27.66;41.28;97089.09;6132761;23;20025;-80
2023/09/02 11:31:06;;;;;;;2.40;0.80;;;;;;;27.62;42.67;97079.22;6185415;23;20084;-80
2023/09/02 11:33:36;;;;;;;1.77;0.80;;;;;;;27.54;42.15;97080.59;6184695;23;20019;-80
2023/09/02 11:36:06;;;;;;;0.80;0.63;;;;;;;27.57;42.02;97073.88;6185406;23;20063;-80
2023/09/02 11:38:35;;;;;;;1.42;0.65;;;;;;;27.61;41.58;97075.72;6185317;23;20025;-80
2023/09/02 11:41:03;;;;;;;1.83;0.70;;;;;;;27.62;41.36;97068.50;6184972;23;20021;-80
2023/09/02 11:43:32;;;;;;;1.33;0.82;;;;;;;27.63;41.84;97078.91;6185262;23;20054;-80